Time;durP1;ratioP1;P1;durP2;ratioP2;P2;SDS_P1;SDS_P2;PMS_P1;PMS_P2;Temp;Humidity;BMP_temperature;BMP_pressure;BME280_temperature;BME280_humidity;BME280_pressure;Samples;Min_cycle;Max_cycle;Signal;HPM_P1;HPM_P2
2024/03/01 00:04:58;;;;;;;90.00;53.70;;;;;;;7.29;90.94;98455.00;226682;1270;22523;-81
2024/03/01 00:10:00;;;;;;;88.30;51.40;;;;;;;7.25;90.86;98454.69;226753;1259;22534;-81
2024/03/01 00:15:02;;;;;;;90.50;52.50;;;;;;;7.23;90.77;98452.33;226663;1268;22979;-81
2024/03/01 00:20:05;;;;;;;88.60;53.00;;;;;;;7.22;91.16;98451.02;226816;1270;22598;-81
2024/03/01 00:25:09;;;;;;;92.40;55.40;;;;;;;7.22;90.84;98448.11;226610;1270;25335;-82
2024/03/01 00:30:12;;;;;;;94.90;53.90;;;;;;;7.21;90.92;98441.89;226771;1262;22527;-81
2024/03/01 00:35:14;;;;;;;94.50;55.30;;;;;;;7.20;91.49;98444.42;226574;1265;22551;-81
2024/03/01 00:40:16;;;;;;;91.40;55.10;;;;;;;7.20;91.15;98440.41;226689;1271;22553;-81
2024/03/01 00:45:20;;;;;;;94.70;55.20;;;;;;;7.19;91.34;98444.40;226585;1270;22544;-81
2024/03/01 00:50:23;;;;;;;93.30;53.40;;;;;;;7.14;91.16;98434.94;222344;1268;5624448;-81
2024/03/01 00:55:26;;;;;;;91.30;54.60;;;;;;;7.12;91.29;98428.80;226588;1269;22751;-81
2024/03/01 01:00:28;;;;;;;97.10;56.00;;;;;;;7.09;91.14;98420.84;226651;1269;22544;-82
2024/03/01 01:05:31;;;;;;;88.30;53.60;;;;;;;7.09;91.53;98412.39;226793;1272;22636;-82
2024/03/01 01:10:33;;;;;;;101.90;60.40;;;;;;;7.11;91.66;98404.35;226758;1271;22604;-81
2024/03/01 01:15:35;;;;;;;101.20;58.50;;;;;;;7.13;91.69;98395.67;226701;1268;22559;-82
2024/03/01 01:20:38;;;;;;;93.70;55.30;;;;;;;7.12;91.61;98386.58;226644;1271;22526;-82
2024/03/01 01:25:43;;;;;;;98.90;56.70;;;;;;;7.11;91.68;98380.73;226755;1269;22922;-82
2024/03/01 01:30:45;;;;;;;98.50;56.80;;;;;;;7.07;91.35;98377.63;226695;1271;22598;-82
2024/03/01 01:35:48;;;;;;;95.60;55.60;;;;;;;7.04;91.52;98375.02;226629;1270;22536;-81
2024/03/01 01:40:51;;;;;;;107.40;58.10;;;;;;;7.02;91.59;98370.11;226690;1269;22576;-81
2024/03/01 01:45:54;;;;;;;100.00;57.10;;;;;;;7.01;91.73;98354.26;226559;1269;22537;-82
2024/03/01 01:50:57;;;;;;;99.90;58.20;;;;;;;7.00;92.23;98346.71;226660;1273;22630;-81
2024/03/01 01:56:01;;;;;;;93.60;55.00;;;;;;;6.96;91.62;98343.67;226667;1269;22578;-81
2024/03/01 02:01:07;;;;;;;94.00;55.50;;;;;;;6.90;91.47;98333.24;226713;1272;25400;-80
2024/03/01 02:06:11;;;;;;;93.50;54.00;;;;;;;6.81;91.55;98330.52;226709;1270;23432;-81
2024/03/01 02:11:14;;;;;;;96.30;54.10;;;;;;;6.73;91.66;98325.28;226755;1272;24720;-81
2024/03/01 02:16:16;;;;;;;94.80;54.80;;;;;;;6.68;91.86;98317.48;226709;1269;22523;-81
2024/03/01 02:21:25;;;;;;;95.90;54.80;;;;;;;6.65;91.90;98305.92;226793;1272;23583;-83
2024/03/01 02:26:27;;;;;;;98.80;57.10;;;;;;;6.64;91.85;98304.13;226675;1271;22523;-81
2024/03/01 02:31:29;;;;;;;95.80;55.90;;;;;;;6.61;92.42;98301.52;226677;1271;22566;-81
2024/03/01 02:36:31;;;;;;;95.70;58.10;;;;;;;6.61;92.59;98297.72;226818;1272;22583;-81
2024/03/01 02:41:33;;;;;;;103.00;59.50;;;;;;;6.60;92.31;98299.04;226738;1273;22568;-81
2024/03/01 02:46:35;;;;;;;103.70;57.80;;;;;;;6.59;92.20;98293.98;226878;1272;22571;-81
2024/03/01 02:51:40;;;;;;;98.60;57.70;;;;;;;6.57;92.40;98290.65;226683;1271;22704;-81
2024/03/01 02:56:43;;;;;;;92.40;53.20;;;;;;;6.56;92.72;98285.50;226844;1271;23027;-81
2024/03/01 03:01:45;;;;;;;102.40;56.40;;;;;;;6.55;92.72;98280.84;226717;1262;22554;-81
2024/03/01 03:06:47;;;;;;;94.70;54.80;;;;;;;6.56;92.83;98280.02;226749;1271;22547;-81
2024/03/01 03:11:52;;;;;;;92.20;52.80;;;;;;;6.55;92.51;98271.23;226680;1271;22648;-81
2024/03/01 03:16:55;;;;;;;98.80;56.30;;;;;;;6.53;92.69;98265.77;226838;1271;22550;-81
2024/03/01 03:21:57;;;;;;;93.10;55.90;;;;;;;6.52;92.74;98261.96;226708;1272;22577;-81
2024/03/01 03:26:59;;;;;;;95.80;57.80;;;;;;;6.48;92.42;98260.11;226708;1274;24258;-81
2024/03/01 03:32:03;;;;;;;93.90;54.40;;;;;;;6.51;92.69;98256.04;226673;1273;22527;-81
2024/03/01 03:37:06;;;;;;;94.70;53.70;;;;;;;6.46;92.42;98256.71;226732;1272;22534;-82
2024/03/01 03:42:09;;;;;;;95.10;54.40;;;;;;;6.36;92.53;98251.57;226728;1271;25323;-81
2024/03/01 03:47:11;;;;;;;89.80;52.60;;;;;;;6.27;92.35;98262.69;226816;1271;22601;-82
2024/03/01 03:52:12;;;;;;;93.10;56.20;;;;;;;6.24;92.37;98262.06;226600;1262;22557;-81
2024/03/01 03:57:15;;;;;;;94.50;56.40;;;;;;;6.20;92.36;98270.28;226781;1271;22534;-81
2024/03/01 04:02:17;;;;;;;90.50;52.90;;;;;;;6.20;92.45;98280.66;226795;1271;22540;-79
2024/03/01 04:07:20;;;;;;;91.00;53.50;;;;;;;6.14;92.37;98280.52;226866;1271;22565;-81
2024/03/01 04:12:22;;;;;;;90.10;52.40;;;;;;;6.07;92.58;98274.75;226735;1265;22553;-81
2024/03/01 04:17:24;;;;;;;92.90;53.90;;;;;;;6.05;92.33;98279.06;226626;1271;25418;-81
2024/03/01 04:22:26;;;;;;;96.10;55.30;;;;;;;6.03;92.74;98272.28;226683;1273;23551;-81
2024/03/01 04:27:30;;;;;;;86.90;51.60;;;;;;;6.01;92.69;98262.98;226643;1273;22542;-81
2024/03/01 04:32:32;;;;;;;97.10;54.80;;;;;;;5.98;92.66;98261.05;226810;1270;22530;-80
2024/03/01 04:37:35;;;;;;;85.70;50.30;;;;;;;5.95;92.50;98255.86;226859;1268;22550;-80
2024/03/01 04:42:41;;;;;;;95.60;55.90;;;;;;;5.90;92.71;98254.46;226856;1273;22576;-80
2024/03/01 04:47:44;;;;;;;89.40;53.50;;;;;;;5.83;92.41;98256.11;226738;1273;24231;-81
2024/03/01 04:52:46;;;;;;;91.50;54.00;;;;;;;5.76;92.36;98259.70;226825;1271;22532;-81
2024/03/01 04:57:48;;;;;;;84.90;50.60;;;;;;;5.74;92.61;98254.77;226736;1271;22573;-81
2024/03/01 05:02:50;;;;;;;87.10;54.50;;;;;;;5.74;92.57;98260.66;226764;1269;25244;-81
2024/03/01 05:07:52;;;;;;;88.80;52.10;;;;;;;5.74;92.70;98261.47;226603;1269;23032;-81
2024/03/01 05:12:54;;;;;;;93.80;54.70;;;;;;;5.69;92.17;98264.83;226757;1255;22540;-81
2024/03/01 05:17:57;;;;;;;91.20;54.80;;;;;;;5.64;92.73;98265.36;226690;1251;23034;-81
2024/03/01 05:22:59;;;;;;;87.10;51.90;;;;;;;5.62;92.70;98269.48;226668;1272;22559;-81
2024/03/01 05:28:01;;;;;;;93.50;54.20;;;;;;;5.62;92.48;98264.41;226734;1271;22636;-81
2024/03/01 05:33:03;;;;;;;92.30;55.00;;;;;;;5.60;92.93;98274.20;226534;1253;22539;-81
2024/03/01 05:38:05;;;;;;;94.90;54.60;;;;;;;5.56;92.19;98275.16;226822;1272;22586;-81
2024/03/01 05:43:07;;;;;;;85.50;53.10;;;;;;;5.54;92.43;98283.45;226676;1267;22544;-81
2024/03/01 05:48:12;;;;;;;89.00;52.90;;;;;;;5.52;92.42;98288.79;226697;1259;22554;-81
2024/03/01 05:53:15;;;;;;;88.80;53.40;;;;;;;5.52;92.75;98290.52;226693;1273;24245;-81
2024/03/01 05:58:19;;;;;;;78.50;45.20;;;;;;;5.52;92.31;98291.86;226643;1274;22544;-81
2024/03/01 06:03:22;;;;;;;83.50;48.50;;;;;;;5.54;92.37;98289.24;226853;1250;22714;-81
2024/03/01 06:08:24;;;;;;;82.20;50.40;;;;;;;5.60;92.48;98296.11;226673;1271;22540;-82
2024/03/01 06:13:26;;;;;;;92.40;53.20;;;;;;;5.62;92.40;98303.19;226775;1271;22999;-82
2024/03/01 06:18:29;;;;;;;89.90;51.20;;;;;;;5.62;92.14;98306.02;226710;1272;22561;-82
2024/03/01 06:23:30;;;;;;;109.70;56.60;;;;;;;5.63;92.56;98298.33;226615;1270;22542;-81
2024/03/01 06:28:32;;;;;;;132.60;57.40;;;;;;;5.74;93.00;98285.82;226650;1273;24372;-81
2024/03/01 06:33:34;;;;;;;112.90;57.70;;;;;;;5.84;93.00;98274.34;226603;1273;22609;-81
2024/03/01 06:38:38;;;;;;;120.30;57.90;;;;;;;5.95;93.28;98277.36;226550;1273;22982;-80
2024/03/01 06:43:40;;;;;;;100.90;51.30;;;;;;;6.03;93.26;98277.04;226688;1272;22606;-81
2024/03/01 06:48:43;;;;;;;107.70;49.50;;;;;;;6.13;92.86;98273.89;226768;1272;22538;-81
2024/03/01 06:53:44;;;;;;;109.00;48.80;;;;;;;6.25;93.23;98263.67;226582;1266;22752;-81
2024/03/01 06:58:47;;;;;;;117.00;51.80;;;;;;;6.36;93.27;98253.23;226640;1262;22593;-79
2024/03/01 07:03:49;;;;;;;108.30;50.40;;;;;;;6.47;92.99;98256.09;226479;1270;23024;-88
2024/03/01 07:08:51;;;;;;;97.60;49.50;;;;;;;6.56;92.97;98257.25;226690;1269;22531;-79
2024/03/01 07:13:53;;;;;;;109.80;51.90;;;;;;;6.69;92.70;98260.91;226536;1256;22531;-81
2024/03/01 07:18:55;;;;;;;108.80;52.70;;;;;;;6.82;92.68;98257.78;226676;1266;25243;-77
2024/03/01 07:23:57;;;;;;;119.30;55.50;;;;;;;6.92;92.57;98254.91;226411;1272;22693;-76
2024/03/01 07:28:59;;;;;;;122.40;54.70;;;;;;;7.04;92.04;98250.38;226397;1269;22608;-79
2024/03/01 07:34:01;;;;;;;101.40;52.80;;;;;;;7.18;92.18;98245.14;226483;1273;22545;-78
2024/03/01 07:39:03;;;;;;;99.60;53.10;;;;;;;7.35;92.44;98242.50;226534;1271;22570;-77
2024/03/01 07:44:06;;;;;;;98.90;52.10;;;;;;;7.52;92.09;98236.80;226536;1253;22561;-76
2024/03/01 07:49:08;;;;;;;93.80;52.50;;;;;;;7.68;92.30;98234.11;226630;1272;22549;-77
2024/03/01 07:54:10;;;;;;;92.90;52.10;;;;;;;7.83;91.86;98234.49;226646;1269;24233;-78
2024/03/01 07:59:12;;;;;;;90.60;51.50;;;;;;;7.97;91.73;98236.08;226588;1271;25344;-77
2024/03/01 08:04:14;;;;;;;99.00;53.60;;;;;;;8.15;91.78;98245.52;226640;1267;22534;-77
2024/03/01 08:09:17;;;;;;;92.60;53.30;;;;;;;8.35;91.67;98247.20;226719;1270;22531;-77
2024/03/01 08:14:41;;;;;;;84.10;51.00;;;;;;;8.61;91.78;98244.27;226546;1273;25312;-78
2024/03/01 08:19:45;;;;;;;85.80;49.20;;;;;;;8.83;91.09;98236.23;226622;1269;22531;-78
2024/03/01 08:24:49;;;;;;;85.80;52.70;;;;;;;8.94;90.73;98236.67;226573;1270;25249;-77
2024/03/01 08:29:52;;;;;;;84.70;52.00;;;;;;;9.01;90.95;98233.30;226504;1273;22539;-79
2024/03/01 08:34:56;;;;;;;81.00;51.50;;;;;;;9.12;90.55;98225.55;226506;1269;22516;-80
2024/03/01 08:39:58;;;;;;;82.90;52.10;;;;;;;9.26;90.26;98226.30;226792;1258;22533;-81
2024/03/01 08:45:01;;;;;;;78.70;50.20;;;;;;;9.41;90.51;98225.09;226669;1267;22547;-80
2024/03/01 08:50:25;;;;;;;78.80;49.60;;;;;;;9.61;90.28;98230.63;226915;1273;23771;-83
2024/03/01 08:55:42;;;;;;;75.50;49.90;;;;;;;9.82;89.89;98236.13;226768;1259;22537;-79
2024/03/01 09:00:47;;;;;;;74.70;47.70;;;;;;;10.09;90.15;98230.55;226640;1272;22662;-80
2024/03/01 09:05:52;;;;;;;74.20;47.40;;;;;;;10.30;89.41;98222.04;226622;1267;22555;-79
2024/03/01 09:10:56;;;;;;;72.70;47.50;;;;;;;10.45;88.85;98218.08;226815;1267;22526;-78
2024/03/01 09:15:59;;;;;;;75.30;48.30;;;;;;;10.61;88.39;98224.27;226408;1273;22999;-79
2024/03/01 09:21:01;;;;;;;72.60;48.40;;;;;;;10.68;87.92;98220.17;226402;1263;22575;-79
2024/03/01 09:26:10;;;;;;;68.90;45.50;;;;;;;10.81;87.90;98227.58;226483;1270;22538;-82
2024/03/01 09:31:13;;;;;;;;;;;;;;;10.85;87.47;98216.64;226182;1254;22741;-79
2024/03/01 09:36:18;;;;;;;70.90;46.60;;;;;;;10.94;87.46;98209.34;226614;1266;22580;-78
2024/03/01 09:41:58;;;;;;;69.10;46.50;;;;;;;11.01;87.17;98203.83;226450;1267;22545;-79
2024/03/01 09:47:12;;;;;;;95.60;65.80;;;;;;;11.08;86.87;98202.69;226494;1254;22561;-80
2024/03/01 09:52:21;;;;;;;66.90;45.30;;;;;;;11.23;87.15;98204.33;226588;1267;22527;-80
2024/03/01 09:58:03;;;;;;;62.60;42.60;;;;;;;11.38;86.83;98199.98;226570;1254;22546;-79
2024/03/01 10:03:36;;;;;;;61.10;43.30;;;;;;;11.52;85.99;98190.68;226583;1268;25255;-80
2024/03/01 10:09:11;;;;;;;62.70;45.10;;;;;;;11.62;85.82;98201.52;226648;1270;22554;-79
2024/03/01 10:14:23;;;;;;;61.50;43.70;;;;;;;11.86;85.69;98208.45;226354;1257;23837;-79
2024/03/01 10:19:38;;;;;;;61.80;42.60;;;;;;;12.11;85.68;98210.25;226316;1251;22544;-78
2024/03/01 10:25:11;;;;;;;54.30;41.20;;;;;;;12.33;85.11;98206.09;226342;1270;26044;-79
2024/03/01 10:30:18;;;;;;;55.70;41.70;;;;;;;12.46;84.71;98196.23;226482;1267;23401;-81
2024/03/01 10:35:24;;;;;;;56.30;39.40;;;;;;;12.56;84.55;98196.61;226612;1258;22554;-79
2024/03/01 10:40:34;;;;;;;54.10;38.20;;;;;;;12.74;84.10;98193.37;226866;1267;22546;-79
2024/03/01 10:46:12;;;;;;;49.40;35.70;;;;;;;12.94;83.68;98193.82;226848;1273;22542;-80
2024/03/01 10:51:17;;;;;;;55.70;39.30;;;;;;;13.00;82.91;98184.59;226657;1266;22539;-79
2024/03/01 10:56:20;;;;;;;55.20;40.60;;;;;;;12.98;82.55;98178.85;226677;1266;22581;-82
2024/03/01 11:01:33;;;;;;;49.50;37.80;;;;;;;13.11;83.25;98173.31;226828;1266;22475;-79
2024/03/01 11:06:59;;;;;;;46.80;35.10;;;;;;;13.26;82.60;98166.65;226716;1267;22562;-82
2024/03/01 11:12:25;;;;;;;52.50;38.50;;;;;;;13.32;81.73;98163.66;226511;1272;22530;-78
2024/03/01 11:17:28;;;;;;;47.70;37.50;;;;;;;13.33;81.88;98158.55;226641;1251;22841;-80
2024/03/01 11:22:30;;;;;;;46.90;35.80;;;;;;;13.37;81.56;98157.06;226738;1267;23114;-79
2024/03/01 11:27:36;;;;;;;48.30;36.00;;;;;;;13.41;81.14;98161.71;226855;1273;25635;-79
2024/03/01 11:32:45;;;;;;;46.10;34.50;;;;;;;13.44;80.85;98152.17;226683;1271;22536;-79
2024/03/01 11:38:22;;;;;;;46.60;33.70;;;;;;;13.53;81.31;98144.52;226740;1262;22569;-77
2024/03/01 11:43:49;;;;;;;44.50;33.20;;;;;;;13.67;80.73;98144.09;226746;1273;22817;-78
2024/03/01 11:49:22;;;;;;;43.50;33.50;;;;;;;13.67;80.10;98143.80;226776;1271;22668;-78
2024/03/01 11:54:39;;;;;;;42.20;33.30;;;;;;;13.72;80.20;98139.38;226841;1258;22540;-77
2024/03/01 11:59:57;;;;;;;42.00;33.20;;;;;;;13.75;79.63;98143.39;226649;1251;24490;-77
2024/03/01 12:05:33;;;;;;;38.20;28.80;;;;;;;13.74;79.60;98137.89;226757;1270;22531;-77
2024/03/01 12:10:53;;;;;;;39.20;28.20;;;;;;;13.72;79.01;98136.68;226710;1274;22545;-78
2024/03/01 12:16:14;;;;;;;45.60;31.40;;;;;;;13.73;78.87;98137.82;226735;1268;22535;-79
2024/03/01 12:21:19;;;;;;;41.30;30.40;;;;;;;13.76;78.69;98140.96;226829;1250;22536;-79
2024/03/01 12:26:32;;;;;;;39.70;29.90;;;;;;;13.76;78.29;98146.89;226754;1270;22538;-79
2024/03/01 12:31:57;;;;;;;38.30;27.70;;;;;;;13.69;77.65;98140.10;226819;1270;22559;-79
2024/03/01 12:37:31;;;;;;;34.70;26.30;;;;;;;13.60;77.24;98135.98;226842;1273;25459;-78
2024/03/01 12:42:45;;;;;;;39.70;28.50;;;;;;;13.53;76.88;98138.25;226850;1257;22533;-77
2024/03/01 12:48:07;;;;;;;39.20;26.90;;;;;;;13.48;77.04;98131.39;226704;1273;22641;-77
2024/03/01 12:53:40;;;;;;;33.40;25.60;;;;;;;13.38;76.34;98127.81;226697;1267;198423;-78
2024/03/01 12:59:02;;;;;;;37.50;25.90;;;;;;;13.25;76.38;98129.92;226872;1263;22581;-78
2024/03/01 13:04:47;;;;;;;34.70;25.60;;;;;;;13.20;76.42;98131.58;226811;1268;22544;-78
2024/03/01 13:09:52;;;;;;;43.30;31.50;;;;;;;13.11;76.51;98122.80;226671;1269;24282;-78
2024/03/01 13:15:13;;;;;;;41.20;30.00;;;;;;;13.02;76.93;98126.08;226762;1266;22666;-78
2024/03/01 13:20:34;;;;;;;40.40;30.50;;;;;;;12.95;77.56;98122.54;226968;1270;22529;-79
2024/03/01 13:25:47;;;;;;;40.10;29.80;;;;;;;12.89;77.76;98116.36;226655;1272;22559;-78
2024/03/01 13:30:51;;;;;;;37.60;28.70;;;;;;;12.86;77.89;98113.55;226660;1271;22534;-79
2024/03/01 13:36:03;;;;;;;42.10;31.90;;;;;;;12.86;77.61;98110.27;226685;1258;22550;-78
2024/03/01 13:41:20;;;;;;;48.40;31.20;;;;;;;12.90;77.96;98114.15;226812;1268;22544;-79
2024/03/01 13:46:37;;;;;;;40.20;28.80;;;;;;;12.97;78.06;98115.05;226789;1265;22626;-78
2024/03/01 13:51:40;;;;;;;41.50;29.30;;;;;;;13.00;77.64;98109.57;226869;1272;22544;-78
2024/03/01 13:56:42;;;;;;;41.70;29.20;;;;;;;12.99;77.22;98102.71;226736;1273;22588;-78
2024/03/01 14:01:44;;;;;;;46.00;30.50;;;;;;;13.01;77.10;98109.19;226855;1254;22542;-78
2024/03/01 14:06:47;;;;;;;42.50;30.60;;;;;;;13.05;77.25;98107.23;226645;1270;22581;-81
2024/03/01 14:11:50;;;;;;;44.30;31.90;;;;;;;13.11;77.19;98112.02;226857;1267;22601;-76
2024/03/01 14:16:52;;;;;;;46.90;30.80;;;;;;;13.14;76.93;98112.85;226706;1265;22561;-77
2024/03/01 14:21:54;;;;;;;44.90;32.50;;;;;;;13.15;77.00;98112.73;226696;1266;22533;-76
2024/03/01 14:26:57;;;;;;;44.20;31.60;;;;;;;13.13;77.43;98116.37;226668;1262;24535;-83
2024/03/01 14:32:08;;;;;;;43.50;31.50;;;;;;;13.07;77.32;98118.58;226822;1265;25023;-78
2024/03/01 14:37:10;;;;;;;43.40;31.60;;;;;;;13.02;77.56;98123.66;226764;1265;22541;-78
2024/03/01 14:42:18;;;;;;;46.30;32.30;;;;;;;12.92;77.29;98129.55;226783;1266;22580;-79
2024/03/01 14:47:23;;;;;;;47.10;33.90;;;;;;;12.81;77.46;98138.50;226667;1271;22626;-78
2024/03/01 14:52:26;;;;;;;54.50;37.50;;;;;;;12.68;77.70;98138.45;226673;1265;22549;-78
2024/03/01 14:57:28;;;;;;;52.40;35.30;;;;;;;12.61;78.01;98137.73;226651;1271;22631;-77
2024/03/01 15:02:30;;;;;;;48.70;35.90;;;;;;;12.54;78.22;98137.23;226548;1270;22614;-78
2024/03/01 15:07:32;;;;;;;51.50;36.30;;;;;;;12.43;78.24;98134.66;226616;1255;22551;-77
2024/03/01 15:12:36;;;;;;;50.70;36.00;;;;;;;12.30;78.47;98138.30;226437;1257;22659;-77
2024/03/01 15:17:38;;;;;;;50.30;36.50;;;;;;;12.11;78.58;98140.83;226448;1257;22556;-77
2024/03/01 15:22:52;;;;;;;49.90;34.70;;;;;;;11.93;78.83;98139.30;226625;1271;22545;-79
2024/03/01 15:27:58;;;;;;;53.30;37.50;;;;;;;11.77;79.27;98143.70;226908;1258;22526;-77
2024/03/01 15:33:00;;;;;;;53.20;37.70;;;;;;;11.63;79.86;98142.27;226759;1269;22543;-76
2024/03/01 15:38:04;;;;;;;49.70;37.10;;;;;;;11.49;80.04;98144.64;226694;1271;22602;-78
2024/03/01 15:43:07;;;;;;;50.50;37.10;;;;;;;11.34;80.64;98137.54;226775;1273;22631;-78
2024/03/01 15:48:09;;;;;;;55.60;38.60;;;;;;;11.19;80.90;98143.52;226876;1273;25325;-77
2024/03/01 15:53:12;;;;;;;57.80;41.40;;;;;;;11.02;81.30;98145.27;226905;1271;22541;-76
2024/03/01 15:58:16;;;;;;;62.70;44.70;;;;;;;10.91;81.86;98150.09;226867;1273;22538;-77
2024/03/01 16:03:18;;;;;;;62.50;45.00;;;;;;;10.85;82.32;98149.84;226906;1268;22531;-77
2024/03/01 16:08:22;;;;;;;65.70;45.90;;;;;;;10.80;82.57;98150.77;226842;1267;25249;-78
2024/03/01 16:13:40;;;;;;;60.80;44.70;;;;;;;10.75;83.02;98152.33;226924;1268;22541;-77
2024/03/01 16:18:43;;;;;;;65.60;47.00;;;;;;;10.67;83.18;98153.68;226799;1268;25373;-77
2024/03/01 16:23:47;;;;;;;67.50;46.60;;;;;;;10.58;83.41;98159.01;226841;1265;22533;-77
2024/03/01 16:28:55;;;;;;;73.40;49.40;;;;;;;10.46;83.65;98156.86;226730;1273;22540;-77
2024/03/01 16:33:57;;;;;;;75.10;50.50;;;;;;;10.35;83.90;98155.91;226902;1271;22538;-78
2024/03/01 16:39:00;;;;;;;69.90;49.30;;;;;;;10.25;84.24;98160.20;226822;1250;22541;-78
2024/03/01 16:44:04;;;;;;;68.50;48.70;;;;;;;10.17;84.59;98166.27;226765;1262;22530;-78
2024/03/01 16:49:32;;;;;;;72.70;49.60;;;;;;;10.10;84.66;98159.85;226804;1250;24984;-77
2024/03/01 16:54:35;;;;;;;59.60;46.20;;;;;;;10.02;85.36;98160.70;226817;1270;23005;-77
2024/03/01 16:59:38;;;;;;;67.60;48.20;;;;;;;9.94;85.53;98163.77;226819;1273;22540;-77
2024/03/01 17:04:41;;;;;;;68.80;48.90;;;;;;;9.87;85.76;98170.20;226811;1274;22530;-77
2024/03/01 17:09:44;;;;;;;67.10;47.90;;;;;;;9.84;86.04;98178.58;226836;1273;22606;-77
2024/03/01 17:14:47;;;;;;;69.00;49.10;;;;;;;9.80;86.17;98178.69;226753;1273;22518;-78
2024/03/01 17:19:49;;;;;;;69.50;49.30;;;;;;;9.75;86.39;98182.66;226741;1273;23648;-77
2024/03/01 17:24:52;;;;;;;68.20;47.80;;;;;;;9.72;86.72;98183.09;226670;1254;22565;-77
2024/03/01 17:29:54;;;;;;;67.80;47.30;;;;;;;9.71;86.93;98184.95;226833;1270;22529;-78
2024/03/01 17:34:57;;;;;;;68.70;47.40;;;;;;;9.69;87.04;98189.27;226844;1271;22544;-78
2024/03/01 17:39:59;;;;;;;73.00;49.90;;;;;;;9.67;87.12;98189.55;226638;1273;23271;-78
2024/03/01 17:45:00;;;;;;;80.90;53.60;;;;;;;9.65;87.39;98189.19;226851;1265;22541;-76
2024/03/01 17:50:03;;;;;;;72.10;50.70;;;;;;;9.60;87.57;98185.23;226759;1273;22540;-77
2024/03/01 17:55:05;;;;;;;75.80;52.40;;;;;;;9.57;87.64;98179.73;226680;1273;22540;-77
2024/03/01 18:00:08;;;;;;;79.70;55.70;;;;;;;9.53;87.84;98176.67;226859;1273;22530;-77
2024/03/01 18:05:10;;;;;;;84.80;55.60;;;;;;;9.53;88.21;98174.08;226825;1272;25339;-78
2024/03/01 18:10:19;;;;;;;88.70;58.70;;;;;;;9.54;88.35;98176.56;226827;1251;22595;-77
2024/03/01 18:15:21;;;;;;;75.40;53.00;;;;;;;9.54;88.40;98178.86;226866;1270;22493;-78
2024/03/01 18:20:24;;;;;;;77.20;53.10;;;;;;;9.53;88.77;98174.04;226752;1268;23643;-78
2024/03/01 18:25:25;;;;;;;82.90;56.70;;;;;;;9.52;88.82;98171.88;226826;1273;22626;-77
2024/03/01 18:30:27;;;;;;;86.30;58.00;;;;;;;9.51;88.78;98176.25;226902;1273;22529;-78
2024/03/01 18:35:30;;;;;;;75.50;52.50;;;;;;;9.50;89.10;98177.18;226745;1273;22545;-78
2024/03/01 18:40:32;;;;;;;77.00;51.50;;;;;;;9.49;89.32;98176.39;226766;1270;22589;-78
2024/03/01 18:45:34;;;;;;;77.30;53.00;;;;;;;9.48;89.14;98174.23;226701;1266;22541;-79
2024/03/01 18:50:36;;;;;;;69.20;46.80;;;;;;;9.46;89.26;98173.98;226786;1271;24221;-75
2024/03/01 18:55:40;;;;;;;75.10;51.40;;;;;;;9.42;89.18;98171.35;226748;1270;22569;-78
2024/03/01 19:00:42;;;;;;;80.10;53.70;;;;;;;9.38;89.30;98171.33;226669;1272;22572;-78
2024/03/01 19:05:46;;;;;;;80.40;52.60;;;;;;;9.36;89.54;98168.23;226675;1270;24212;-76
2024/03/01 19:10:48;;;;;;;81.30;54.50;;;;;;;9.34;89.63;98167.55;226672;1265;22573;-78
2024/03/01 19:15:50;;;;;;;83.50;55.70;;;;;;;9.33;89.81;98165.27;226638;1271;22530;-78
2024/03/01 19:20:52;;;;;;;85.00;56.90;;;;;;;9.31;89.91;98163.11;226679;1259;22526;-78
2024/03/01 19:25:56;;;;;;;81.10;53.00;;;;;;;9.28;90.05;98166.05;226671;1270;24249;-78
2024/03/01 19:30:59;;;;;;;91.80;58.80;;;;;;;9.25;89.96;98165.74;226708;1268;22544;-79
2024/03/01 19:36:02;;;;;;;87.30;58.20;;;;;;;9.24;90.45;98165.36;226723;1271;23023;-77
2024/03/01 19:41:04;;;;;;;93.90;61.00;;;;;;;9.23;90.27;98164.30;226809;1274;22545;-79
2024/03/01 19:46:06;;;;;;;88.50;57.10;;;;;;;9.20;90.21;98164.04;226649;1273;22519;-78
2024/03/01 19:51:09;;;;;;;89.20;59.00;;;;;;;9.18;90.60;98162.20;226722;1267;22530;-79
2024/03/01 19:56:11;;;;;;;94.50;62.50;;;;;;;9.17;90.43;98166.04;226622;1273;22648;-78
2024/03/01 20:01:14;;;;;;;92.40;61.00;;;;;;;9.16;90.53;98170.21;226701;1273;22537;-78
2024/03/01 20:06:16;;;;;;;93.20;58.90;;;;;;;9.15;90.32;98171.21;226855;1271;22555;-77
2024/03/01 20:11:19;;;;;;;95.30;59.60;;;;;;;9.14;90.59;98172.05;226774;1271;22530;-77
2024/03/01 20:16:21;;;;;;;88.50;60.10;;;;;;;9.13;90.67;98170.95;226655;1272;23258;-78
2024/03/01 20:21:23;;;;;;;90.40;59.10;;;;;;;9.11;90.53;98168.78;226778;1265;22585;-78
2024/03/01 20:26:25;;;;;;;85.20;56.10;;;;;;;9.08;90.64;98165.60;226758;1268;23647;-77
2024/03/01 20:31:26;;;;;;;85.70;55.60;;;;;;;9.06;90.46;98162.88;226717;1273;22584;-78
2024/03/01 20:36:28;;;;;;;85.90;56.40;;;;;;;9.03;90.75;98157.85;226798;1270;25205;-78
2024/03/01 20:41:33;;;;;;;89.40;57.20;;;;;;;9.00;90.83;98155.80;226795;1254;22549;-77
2024/03/01 20:46:35;;;;;;;82.90;54.20;;;;;;;8.98;90.56;98160.30;226889;1271;22536;-78
2024/03/01 20:51:37;;;;;;;85.50;55.20;;;;;;;8.97;90.84;98158.48;226812;1259;23283;-78
2024/03/01 20:56:39;;;;;;;87.40;56.80;;;;;;;8.95;90.61;98159.52;226854;1272;22542;-78
2024/03/01 21:01:40;;;;;;;81.40;53.90;;;;;;;8.95;90.46;98163.21;226867;1271;22538;-77
2024/03/01 21:06:42;;;;;;;81.50;54.10;;;;;;;8.97;90.66;98163.06;226738;1273;22524;-78
2024/03/01 21:11:45;;;;;;;78.70;51.20;;;;;;;8.95;90.45;98161.30;226756;1271;22553;-78
2024/03/01 21:16:47;;;;;;;79.30;54.20;;;;;;;8.92;90.33;98159.73;226710;1272;22521;-78
2024/03/01 21:21:50;;;;;;;84.10;54.30;;;;;;;8.88;90.38;98158.42;226839;1271;24375;-78
2024/03/01 21:26:55;;;;;;;80.60;52.90;;;;;;;8.81;90.45;98161.98;226684;1273;22548;-79
2024/03/01 21:31:57;;;;;;;80.00;52.70;;;;;;;8.73;90.28;98150.94;226683;1272;22595;-79
2024/03/01 21:37:00;;;;;;;84.30;53.00;;;;;;;8.63;89.92;98152.73;226587;1271;22549;-78
2024/03/01 21:42:03;;;;;;;79.10;52.60;;;;;;;8.53;90.06;98159.77;226829;1270;25240;-78
2024/03/01 21:47:05;;;;;;;76.20;50.60;;;;;;;8.43;90.43;98168.36;226678;1273;24277;-78
2024/03/01 21:52:08;;;;;;;76.40;51.30;;;;;;;8.37;90.55;98168.79;226590;1273;22538;-76
2024/03/01 21:57:10;;;;;;;75.80;51.00;;;;;;;8.33;90.79;98168.02;226634;1253;22546;-77
2024/03/01 22:02:12;;;;;;;75.90;50.10;;;;;;;8.31;90.88;98167.18;226833;1271;22521;-78
2024/03/01 22:07:19;;;;;;;77.50;52.50;;;;;;;8.29;90.56;98167.13;226688;1273;22525;-79
2024/03/01 22:12:22;;;;;;;78.40;52.00;;;;;;;8.28;90.68;98158.69;226682;1262;25412;-78
2024/03/01 22:17:24;;;;;;;82.60;54.00;;;;;;;8.27;90.79;98153.30;226779;1270;22547;-76
2024/03/01 22:22:27;;;;;;;78.70;51.50;;;;;;;8.26;90.47;98154.42;226887;1274;22526;-77
2024/03/01 22:27:29;;;;;;;79.90;51.60;;;;;;;8.26;91.05;98154.66;226845;1273;22526;-78
2024/03/01 22:32:34;;;;;;;81.00;54.30;;;;;;;8.22;90.64;98155.10;226819;1274;22540;-77
2024/03/01 22:37:37;;;;;;;86.20;54.00;;;;;;;8.17;90.76;98153.67;226697;1270;22584;-78
2024/03/01 22:42:40;;;;;;;85.20;53.20;;;;;;;8.08;90.88;98142.06;226689;1271;25271;-77
2024/03/01 22:47:43;;;;;;;82.50;53.20;;;;;;;8.01;91.04;98137.73;226672;1273;22568;-78
2024/03/01 22:52:46;;;;;;;78.00;52.50;;;;;;;7.95;90.65;98137.92;226797;1269;22574;-77
2024/03/01 22:57:49;;;;;;;81.90;52.30;;;;;;;7.89;90.99;98138.14;226623;1272;22545;-77
2024/03/01 23:02:53;;;;;;;81.60;51.60;;;;;;;7.85;90.63;98137.98;226594;1273;22527;-78
2024/03/01 23:07:56;;;;;;;77.60;51.00;;;;;;;7.81;90.90;98149.55;226800;1273;22530;-77
2024/03/01 23:12:58;;;;;;;81.90;53.80;;;;;;;7.78;90.86;98163.48;226710;1272;22550;-78
2024/03/01 23:18:00;;;;;;;82.60;51.90;;;;;;;7.77;91.10;98167.17;226773;1273;22542;-77
2024/03/01 23:23:02;;;;;;;77.00;51.10;;;;;;;7.75;91.47;98167.68;226627;1254;22531;-78